sensor_id;sensor_type;location;lat;lon;timestamp;pressure;altitude;pressure_sealevel;temperature;humidity
55022;BME280;68328;35.990;-86.756;2023-04-04T00:02:22;98570.62;;;18.14;51.99
55022;BME280;68328;35.990;-86.756;2023-04-04T00:04:47;98563.37;;;17.29;53.14
55022;BME280;68328;35.990;-86.756;2023-04-04T00:07:12;98559.72;;;16.13;55.39
55022;BME280;68328;35.990;-86.756;2023-04-04T00:09:39;98554.82;;;17.86;52.59
55022;BME280;68328;35.990;-86.756;2023-04-04T00:12:05;98563.67;;;18.35;51.18
55022;BME280;68328;35.990;-86.756;2023-04-04T00:14:30;98568.01;;;16.86;54.09
55022;BME280;68328;35.990;-86.756;2023-04-04T00:16:55;98564.79;;;18.00;51.57
55022;BME280;68328;35.990;-86.756;2023-04-04T00:19:20;98561.27;;;18.27;51.43
55022;BME280;68328;35.990;-86.756;2023-04-04T00:21:46;98561.12;;;17.94;51.68
55022;BME280;68328;35.990;-86.756;2023-04-04T00:24:11;98559.97;;;17.58;53.50
55022;BME280;68328;35.990;-86.756;2023-04-04T00:26:36;98564.80;;;16.03;56.64
55022;BME280;68328;35.990;-86.756;2023-04-04T00:29:01;98561.18;;;18.44;52.11
55022;BME280;68328;35.990;-86.756;2023-04-04T00:31:27;98561.10;;;18.45;51.01
55022;BME280;68328;35.990;-86.756;2023-04-04T00:33:52;98559.39;;;17.92;52.27
55022;BME280;68328;35.990;-86.756;2023-04-04T00:36:19;98560.51;;;18.82;50.26
55022;BME280;68328;35.990;-86.756;2023-04-04T00:38:44;98557.29;;;18.73;50.96
55022;BME280;68328;35.990;-86.756;2023-04-04T00:41:10;98561.44;;;18.29;51.10
55022;BME280;68328;35.990;-86.756;2023-04-04T00:43:35;98568.18;;;17.16;54.49
55022;BME280;68328;35.990;-86.756;2023-04-04T00:46:00;98573.55;;;16.84;55.37
55022;BME280;68328;35.990;-86.756;2023-04-04T00:48:26;98572.48;;;18.05;51.97
55022;BME280;68328;35.990;-86.756;2023-04-04T00:50:50;98572.84;;;18.69;51.02
55022;BME280;68328;35.990;-86.756;2023-04-04T00:53:15;98576.63;;;16.81;55.59
55022;BME280;68328;35.990;-86.756;2023-04-04T00:55:41;98574.82;;;18.43;52.12
55022;BME280;68328;35.990;-86.756;2023-04-04T00:58:06;98572.31;;;18.02;52.31
55022;BME280;68328;35.990;-86.756;2023-04-04T01:00:34;98572.99;;;16.28;57.18
55022;BME280;68328;35.990;-86.756;2023-04-04T01:02:57;98576.47;;;15.44;60.14
55022;BME280;68328;35.990;-86.756;2023-04-04T01:05:22;98572.96;;;17.35;55.61
55022;BME280;68328;35.990;-86.756;2023-04-04T01:07:47;98573.76;;;17.03;55.35
55022;BME280;68328;35.990;-86.756;2023-04-04T01:10:14;98580.37;;;17.06;54.88
55022;BME280;68328;35.990;-86.756;2023-04-04T01:12:39;98577.53;;;17.68;52.90
55022;BME280;68328;35.990;-86.756;2023-04-04T01:15:03;98581.07;;;18.25;52.25
55022;BME280;68328;35.990;-86.756;2023-04-04T01:17:29;98575.60;;;18.44;51.27
55022;BME280;68328;35.990;-86.756;2023-04-04T01:20:02;98576.48;;;18.25;52.01
55022;BME280;68328;35.990;-86.756;2023-04-04T01:22:20;98583.52;;;18.01;51.99
55022;BME280;68328;35.990;-86.756;2023-04-04T01:24:46;98580.38;;;18.35;51.32
55022;BME280;68328;35.990;-86.756;2023-04-04T01:27:10;98592.49;;;17.15;54.68
55022;BME280;68328;35.990;-86.756;2023-04-04T01:29:38;98593.12;;;17.70;54.30
55022;BME280;68328;35.990;-86.756;2023-04-04T01:32:06;98593.74;;;17.28;54.55
55022;BME280;68328;35.990;-86.756;2023-04-04T01:34:34;98593.16;;;16.53;57.51
55022;BME280;68328;35.990;-86.756;2023-04-04T01:37:00;98598.28;;;16.78;55.96
55022;BME280;68328;35.990;-86.756;2023-04-04T01:39:30;98598.98;;;17.98;53.08
55022;BME280;68328;35.990;-86.756;2023-04-04T01:41:48;98603.51;;;18.55;52.30
55022;BME280;68328;35.990;-86.756;2023-04-04T01:44:09;98612.87;;;15.80;58.21
55022;BME280;68328;35.990;-86.756;2023-04-04T01:46:35;98612.25;;;16.13;58.86
55022;BME280;68328;35.990;-86.756;2023-04-04T01:49:00;98612.19;;;15.92;58.50
55022;BME280;68328;35.990;-86.756;2023-04-04T01:51:26;98609.51;;;16.78;56.44
55022;BME280;68328;35.990;-86.756;2023-04-04T01:53:50;98608.82;;;16.21;56.89
55022;BME280;68328;35.990;-86.756;2023-04-04T01:56:15;98607.37;;;16.77;56.24
55022;BME280;68328;35.990;-86.756;2023-04-04T01:58:41;98601.50;;;17.85;53.88
55022;BME280;68328;35.990;-86.756;2023-04-04T02:01:06;98597.49;;;18.84;51.80
55022;BME280;68328;35.990;-86.756;2023-04-04T02:03:31;98596.29;;;15.79;58.33
55022;BME280;68328;35.990;-86.756;2023-04-04T02:05:56;98598.41;;;17.42;55.03
55022;BME280;68328;35.990;-86.756;2023-04-04T02:08:22;98603.50;;;16.52;56.04
55022;BME280;68328;35.990;-86.756;2023-04-04T02:10:47;98602.89;;;17.32;54.15
55022;BME280;68328;35.990;-86.756;2023-04-04T02:13:12;98600.43;;;19.03;51.62
55022;BME280;68328;35.990;-86.756;2023-04-04T02:15:38;98607.78;;;19.07;50.58
55022;BME280;68328;35.990;-86.756;2023-04-04T02:18:03;98611.78;;;19.16;49.90
55022;BME280;68328;35.990;-86.756;2023-04-04T02:20:29;98615.55;;;19.13;49.76
55022;BME280;68328;35.990;-86.756;2023-04-04T02:22:54;98616.85;;;19.14;50.28
55022;BME280;68328;35.990;-86.756;2023-04-04T02:25:19;98620.16;;;19.30;49.72
55022;BME280;68328;35.990;-86.756;2023-04-04T02:27:44;98615.05;;;18.90;50.72
55022;BME280;68328;35.990;-86.756;2023-04-04T02:30:10;98613.44;;;18.61;51.17
55022;BME280;68328;35.990;-86.756;2023-04-04T02:32:35;98620.02;;;18.94;50.53
55022;BME280;68328;35.990;-86.756;2023-04-04T02:35:02;98621.94;;;18.17;52.10
55022;BME280;68328;35.990;-86.756;2023-04-04T02:37:27;98620.69;;;17.09;55.54
55022;BME280;68328;35.990;-86.756;2023-04-04T02:39:53;98614.75;;;16.68;57.22
55022;BME280;68328;35.990;-86.756;2023-04-04T02:42:18;98615.46;;;17.24;55.74
55022;BME280;68328;35.990;-86.756;2023-04-04T02:44:44;98611.25;;;16.66;57.72
55022;BME280;68328;35.990;-86.756;2023-04-04T02:47:08;98621.89;;;15.01;63.23
55022;BME280;68328;35.990;-86.756;2023-04-04T02:49:34;98604.48;;;16.05;60.88
55022;BME280;68328;35.990;-86.756;2023-04-04T02:51:59;98603.62;;;15.49;62.00
55022;BME280;68328;35.990;-86.756;2023-04-04T02:54:25;98603.50;;;15.97;61.28
55022;BME280;68328;35.990;-86.756;2023-04-04T02:56:51;98602.04;;;16.03;62.24
55022;BME280;68328;35.990;-86.756;2023-04-04T02:59:15;98595.33;;;15.32;63.67
55022;BME280;68328;35.990;-86.756;2023-04-04T03:01:40;98600.59;;;15.97;60.98
55022;BME280;68328;35.990;-86.756;2023-04-04T03:04:05;98589.84;;;17.46;57.07
55022;BME280;68328;35.990;-86.756;2023-04-04T03:06:31;98586.14;;;18.39;54.52
55022;BME280;68328;35.990;-86.756;2023-04-04T03:08:58;98588.15;;;17.57;56.25
55022;BME280;68328;35.990;-86.756;2023-04-04T03:11:22;98587.87;;;17.07;57.39
55022;BME280;68328;35.990;-86.756;2023-04-04T03:13:49;98590.74;;;18.31;54.57
55022;BME280;68328;35.990;-86.756;2023-04-04T03:16:13;98581.87;;;18.97;52.37
55022;BME280;68328;35.990;-86.756;2023-04-04T03:18:39;98585.10;;;17.86;55.59
55022;BME280;68328;35.990;-86.756;2023-04-04T03:21:05;98582.98;;;18.43;53.12
55022;BME280;68328;35.990;-86.756;2023-04-04T03:23:30;98584.12;;;18.33;53.31
55022;BME280;68328;35.990;-86.756;2023-04-04T03:25:56;98580.38;;;18.82;52.48
55022;BME280;68328;35.990;-86.756;2023-04-04T03:28:20;98583.65;;;19.03;51.95
55022;BME280;68328;35.990;-86.756;2023-04-04T03:30:45;98587.31;;;19.22;51.33
55022;BME280;68328;35.990;-86.756;2023-04-04T03:33:11;98585.87;;;19.13;51.44
55022;BME280;68328;35.990;-86.756;2023-04-04T03:35:39;98586.88;;;17.67;55.28
55022;BME280;68328;35.990;-86.756;2023-04-04T03:38:02;98582.88;;;17.62;54.91
55022;BME280;68328;35.990;-86.756;2023-04-04T03:40:29;98583.51;;;18.95;52.69
55022;BME280;68328;35.990;-86.756;2023-04-04T03:42:52;98584.84;;;18.65;53.09
55022;BME280;68328;35.990;-86.756;2023-04-04T03:45:17;98580.87;;;18.84;52.10
55022;BME280;68328;35.990;-86.756;2023-04-04T03:47:42;98584.09;;;18.16;53.43
55022;BME280;68328;35.990;-86.756;2023-04-04T03:50:09;98565.80;;;17.32;56.18
55022;BME280;68328;35.990;-86.756;2023-04-04T03:52:38;98581.75;;;16.18;59.84
55022;BME280;68328;35.990;-86.756;2023-04-04T03:55:00;98571.25;;;17.58;57.24
55022;BME280;68328;35.990;-86.756;2023-04-04T03:57:24;98578.25;;;16.90;57.23
55022;BME280;68328;35.990;-86.756;2023-04-04T03:59:50;98573.07;;;17.15;57.62
55022;BME280;68328;35.990;-86.756;2023-04-04T04:02:15;98576.98;;;16.40;59.00
55022;BME280;68328;35.990;-86.756;2023-04-04T04:04:40;98568.49;;;17.38;58.19
55022;BME280;68328;35.990;-86.756;2023-04-04T04:07:07;98570.40;;;16.11;60.09
55022;BME280;68328;35.990;-86.756;2023-04-04T04:09:32;98575.13;;;16.32;60.07
55022;BME280;68328;35.990;-86.756;2023-04-04T04:11:57;98576.93;;;17.00;59.47
55022;BME280;68328;35.990;-86.756;2023-04-04T04:14:22;98572.21;;;15.06;64.33
55022;BME280;68328;35.990;-86.756;2023-04-04T04:16:47;98574.89;;;16.59;60.47
55022;BME280;68328;35.990;-86.756;2023-04-04T04:19:13;98572.33;;;16.79;58.72
55022;BME280;68328;35.990;-86.756;2023-04-04T04:21:38;98577.08;;;16.47;59.39
55022;BME280;68328;35.990;-86.756;2023-04-04T04:24:04;98577.09;;;15.61;62.79
55022;BME280;68328;35.990;-86.756;2023-04-04T04:26:28;98583.40;;;16.10;62.10
55022;BME280;68328;35.990;-86.756;2023-04-04T04:28:54;98577.97;;;15.28;65.01
55022;BME280;68328;35.990;-86.756;2023-04-04T04:31:19;98585.77;;;16.15;61.75
55022;BME280;68328;35.990;-86.756;2023-04-04T04:33:45;98579.61;;;16.71;60.75
55022;BME280;68328;35.990;-86.756;2023-04-04T04:36:11;98588.71;;;17.19;58.67
55022;BME280;68328;35.990;-86.756;2023-04-04T04:38:36;98593.22;;;16.16;61.99
55022;BME280;68328;35.990;-86.756;2023-04-04T04:41:01;98593.51;;;15.77;63.12
55022;BME280;68328;35.990;-86.756;2023-04-04T04:43:27;98583.04;;;15.94;63.06
55022;BME280;68328;35.990;-86.756;2023-04-04T04:45:52;98593.17;;;14.89;65.59
55022;BME280;68328;35.990;-86.756;2023-04-04T04:48:19;98593.63;;;14.64;66.75
55022;BME280;68328;35.990;-86.756;2023-04-04T04:50:45;98594.38;;;15.48;63.82
55022;BME280;68328;35.990;-86.756;2023-04-04T04:53:10;98590.20;;;16.93;59.65
55022;BME280;68328;35.990;-86.756;2023-04-04T04:55:35;98591.13;;;17.15;59.12
55022;BME280;68328;35.990;-86.756;2023-04-04T04:58:00;98585.76;;;16.45;62.10
55022;BME280;68328;35.990;-86.756;2023-04-04T05:00:25;98585.44;;;15.80;62.97
55022;BME280;68328;35.990;-86.756;2023-04-04T05:02:54;98575.94;;;16.20;61.27
55022;BME280;68328;35.990;-86.756;2023-04-04T05:05:18;98574.47;;;16.26;62.85
55022;BME280;68328;35.990;-86.756;2023-04-04T05:07:44;98580.90;;;15.73;64.03
55022;BME280;68328;35.990;-86.756;2023-04-04T05:10:10;98578.97;;;16.54;62.38
55022;BME280;68328;35.990;-86.756;2023-04-04T05:12:34;98579.44;;;15.47;64.88
55022;BME280;68328;35.990;-86.756;2023-04-04T05:14:59;98579.29;;;15.04;66.38
55022;BME280;68328;35.990;-86.756;2023-04-04T05:17:24;98584.55;;;15.11;67.18
55022;BME280;68328;35.990;-86.756;2023-04-04T05:19:50;98573.87;;;14.68;67.21
55022;BME280;68328;35.990;-86.756;2023-04-04T05:22:16;98579.59;;;14.67;67.66
55022;BME280;68328;35.990;-86.756;2023-04-04T05:24:43;98571.86;;;15.40;65.39
55022;BME280;68328;35.990;-86.756;2023-04-04T05:27:06;98568.35;;;15.39;65.73
55022;BME280;68328;35.990;-86.756;2023-04-04T05:29:31;98564.92;;;15.48;65.27
55022;BME280;68328;35.990;-86.756;2023-04-04T05:31:57;98562.68;;;15.07;66.41
55022;BME280;68328;35.990;-86.756;2023-04-04T05:34:23;98558.09;;;14.19;70.43
55022;BME280;68328;35.990;-86.756;2023-04-04T05:36:49;98562.04;;;15.45;65.83
55022;BME280;68328;35.990;-86.756;2023-04-04T05:39:14;98556.48;;;17.16;59.97
55022;BME280;68328;35.990;-86.756;2023-04-04T05:41:39;98556.26;;;17.03;60.36
55022;BME280;68328;35.990;-86.756;2023-04-04T05:44:06;98551.24;;;17.49;57.90
55022;BME280;68328;35.990;-86.756;2023-04-04T05:46:31;98556.12;;;17.20;58.32
55022;BME280;68328;35.990;-86.756;2023-04-04T05:48:57;98561.15;;;15.44;65.39
55022;BME280;68328;35.990;-86.756;2023-04-04T05:51:22;98560.19;;;14.45;68.52
55022;BME280;68328;35.990;-86.756;2023-04-04T05:53:47;98556.75;;;15.49;66.69
55022;BME280;68328;35.990;-86.756;2023-04-04T05:56:12;98560.62;;;15.32;66.65
55022;BME280;68328;35.990;-86.756;2023-04-04T05:58:37;98562.92;;;15.13;66.71
55022;BME280;68328;35.990;-86.756;2023-04-04T06:01:07;98563.62;;;15.96;63.72
55022;BME280;68328;35.990;-86.756;2023-04-04T06:03:28;98558.04;;;16.55;61.87
55022;BME280;68328;35.990;-86.756;2023-04-04T06:05:56;98568.29;;;17.25;60.03
55022;BME280;68328;35.990;-86.756;2023-04-04T06:08:20;98562.59;;;18.25;57.27
55022;BME280;68328;35.990;-86.756;2023-04-04T06:10:45;98562.17;;;18.21;56.83
55022;BME280;68328;35.990;-86.756;2023-04-04T06:13:10;98565.12;;;17.34;60.28
55022;BME280;68328;35.990;-86.756;2023-04-04T06:15:36;98568.64;;;18.28;56.81
55022;BME280;68328;35.990;-86.756;2023-04-04T06:18:02;98569.78;;;17.09;59.21
55022;BME280;68328;35.990;-86.756;2023-04-04T06:20:26;98570.59;;;18.38;56.85
55022;BME280;68328;35.990;-86.756;2023-04-04T06:22:52;98566.91;;;19.46;54.22
55022;BME280;68328;35.990;-86.756;2023-04-04T06:25:17;98568.96;;;17.47;60.24
55022;BME280;68328;35.990;-86.756;2023-04-04T06:27:43;98567.85;;;17.40;59.61
55022;BME280;68328;35.990;-86.756;2023-04-04T06:30:09;98566.66;;;18.02;58.62
55022;BME280;68328;35.990;-86.756;2023-04-04T06:32:34;98561.98;;;16.57;63.02
55022;BME280;68328;35.990;-86.756;2023-04-04T06:34:58;98565.51;;;16.01;66.12
55022;BME280;68328;35.990;-86.756;2023-04-04T06:37:24;98566.16;;;16.51;65.05
55022;BME280;68328;35.990;-86.756;2023-04-04T06:39:51;98564.67;;;16.52;64.71
55022;BME280;68328;35.990;-86.756;2023-04-04T06:42:14;98570.62;;;16.14;66.87
55022;BME280;68328;35.990;-86.756;2023-04-04T06:44:40;98558.35;;;16.40;67.09
55022;BME280;68328;35.990;-86.756;2023-04-04T06:47:07;98560.17;;;14.80;74.00
55022;BME280;68328;35.990;-86.756;2023-04-04T06:49:31;98558.56;;;14.91;73.78
55022;BME280;68328;35.990;-86.756;2023-04-04T06:51:56;98556.63;;;15.70;70.83
55022;BME280;68328;35.990;-86.756;2023-04-04T06:54:21;98554.20;;;15.35;71.31
55022;BME280;68328;35.990;-86.756;2023-04-04T06:56:47;98555.28;;;15.68;71.65
55022;BME280;68328;35.990;-86.756;2023-04-04T06:59:13;98540.09;;;16.07;69.77
55022;BME280;68328;35.990;-86.756;2023-04-04T07:01:38;98538.97;;;15.85;70.73
55022;BME280;68328;35.990;-86.756;2023-04-04T07:04:04;98546.11;;;14.83;75.01
55022;BME280;68328;35.990;-86.756;2023-04-04T07:06:29;98547.44;;;14.85;76.17
55022;BME280;68328;35.990;-86.756;2023-04-04T07:08:55;98545.98;;;15.23;73.33
55022;BME280;68328;35.990;-86.756;2023-04-04T07:11:20;98544.92;;;15.78;71.73
55022;BME280;68328;35.990;-86.756;2023-04-04T07:13:45;98539.00;;;15.89;71.20
55022;BME280;68328;35.990;-86.756;2023-04-04T07:16:12;98539.58;;;15.00;74.14
55022;BME280;68328;35.990;-86.756;2023-04-04T07:18:36;98541.02;;;15.25;74.73
55022;BME280;68328;35.990;-86.756;2023-04-04T07:21:02;98537.46;;;15.75;73.05
55022;BME280;68328;35.990;-86.756;2023-04-04T07:23:27;98543.53;;;15.60;72.44
55022;BME280;68328;35.990;-86.756;2023-04-04T07:25:52;98537.33;;;16.53;69.92
55022;BME280;68328;35.990;-86.756;2023-04-04T07:28:18;98540.58;;;15.24;72.65
55022;BME280;68328;35.990;-86.756;2023-04-04T07:30:43;98535.94;;;16.10;70.48
55022;BME280;68328;35.990;-86.756;2023-04-04T07:33:10;98539.69;;;16.77;69.19
55022;BME280;68328;35.990;-86.756;2023-04-04T07:35:34;98532.86;;;16.32;71.57
55022;BME280;68328;35.990;-86.756;2023-04-04T07:37:59;98543.04;;;15.43;74.24
55022;BME280;68328;35.990;-86.756;2023-04-04T07:40:25;98539.61;;;15.76;71.92
55022;BME280;68328;35.990;-86.756;2023-04-04T07:42:50;98540.09;;;15.99;72.81
55022;BME280;68328;35.990;-86.756;2023-04-04T07:45:15;98538.25;;;15.04;75.97
55022;BME280;68328;35.990;-86.756;2023-04-04T07:47:43;98536.47;;;15.28;75.97
55022;BME280;68328;35.990;-86.756;2023-04-04T07:50:06;98531.20;;;16.47;71.50
55022;BME280;68328;35.990;-86.756;2023-04-04T07:52:31;98532.69;;;17.16;68.59
55022;BME280;68328;35.990;-86.756;2023-04-04T07:54:57;98536.33;;;16.63;70.61
55022;BME280;68328;35.990;-86.756;2023-04-04T07:57:23;98542.38;;;16.31;71.26
55022;BME280;68328;35.990;-86.756;2023-04-04T07:59:48;98552.23;;;15.70;73.87
55022;BME280;68328;35.990;-86.756;2023-04-04T08:02:14;98547.84;;;16.95;68.92
55022;BME280;68328;35.990;-86.756;2023-04-04T08:04:39;98544.72;;;15.66;72.81
55022;BME280;68328;35.990;-86.756;2023-04-04T08:07:04;98541.23;;;18.01;65.58
55022;BME280;68328;35.990;-86.756;2023-04-04T08:09:31;98549.61;;;17.52;67.23
55022;BME280;68328;35.990;-86.756;2023-04-04T08:11:55;98544.27;;;16.71;68.50
55022;BME280;68328;35.990;-86.756;2023-04-04T08:14:21;98553.00;;;15.94;73.66
55022;BME280;68328;35.990;-86.756;2023-04-04T08:16:47;98549.66;;;16.93;69.64
55022;BME280;68328;35.990;-86.756;2023-04-04T08:19:13;98548.99;;;16.61;70.42
55022;BME280;68328;35.990;-86.756;2023-04-04T08:21:39;98546.60;;;16.84;70.56
55022;BME280;68328;35.990;-86.756;2023-04-04T08:24:04;98557.38;;;17.26;68.71
55022;BME280;68328;35.990;-86.756;2023-04-04T08:26:30;98553.61;;;16.85;69.12
55022;BME280;68328;35.990;-86.756;2023-04-04T08:28:55;98543.86;;;17.41;68.84
55022;BME280;68328;35.990;-86.756;2023-04-04T08:31:20;98543.42;;;16.67;70.74
55022;BME280;68328;35.990;-86.756;2023-04-04T08:33:47;98541.75;;;16.11;72.20
55022;BME280;68328;35.990;-86.756;2023-04-04T08:36:12;98544.26;;;16.99;70.04
55022;BME280;68328;35.990;-86.756;2023-04-04T08:41:04;98540.29;;;18.47;64.95
55022;BME280;68328;35.990;-86.756;2023-04-04T08:43:34;98544.67;;;17.65;67.01
55022;BME280;68328;35.990;-86.756;2023-04-04T08:45:54;98537.63;;;17.02;69.37
55022;BME280;68328;35.990;-86.756;2023-04-04T08:48:20;98537.09;;;17.50;69.25
55022;BME280;68328;35.990;-86.756;2023-04-04T08:50:45;98540.60;;;16.74;71.46
55022;BME280;68328;35.990;-86.756;2023-04-04T08:53:11;98539.33;;;17.18;69.86
55022;BME280;68328;35.990;-86.756;2023-04-04T08:55:36;98541.54;;;17.03;71.03
55022;BME280;68328;35.990;-86.756;2023-04-04T08:58:01;98536.49;;;17.42;67.98
55022;BME280;68328;35.990;-86.756;2023-04-04T09:00:26;98533.89;;;17.49;69.24
55022;BME280;68328;35.990;-86.756;2023-04-04T09:02:58;98535.09;;;16.79;71.25
55022;BME280;68328;35.990;-86.756;2023-04-04T09:05:18;98527.70;;;16.77;72.95
55022;BME280;68328;35.990;-86.756;2023-04-04T09:07:43;98527.55;;;16.47;72.30
55022;BME280;68328;35.990;-86.756;2023-04-04T09:10:09;98530.11;;;16.13;75.19
55022;BME280;68328;35.990;-86.756;2023-04-04T09:12:35;98534.35;;;15.98;75.74
55022;BME280;68328;35.990;-86.756;2023-04-04T09:15:00;98531.76;;;16.24;75.49
55022;BME280;68328;35.990;-86.756;2023-04-04T09:17:24;98530.55;;;16.07;74.99
55022;BME280;68328;35.990;-86.756;2023-04-04T09:19:49;98533.95;;;15.89;76.28
55022;BME280;68328;35.990;-86.756;2023-04-04T09:22:16;98532.77;;;15.96;76.01
55022;BME280;68328;35.990;-86.756;2023-04-04T09:24:41;98530.61;;;16.85;72.48
55022;BME280;68328;35.990;-86.756;2023-04-04T09:27:05;98528.62;;;16.59;72.54
55022;BME280;68328;35.990;-86.756;2023-04-04T09:29:30;98534.02;;;16.78;72.40
55022;BME280;68328;35.990;-86.756;2023-04-04T09:31:55;98537.45;;;16.68;73.35
55022;BME280;68328;35.990;-86.756;2023-04-04T09:34:21;98540.30;;;16.07;74.63
55022;BME280;68328;35.990;-86.756;2023-04-04T09:36:46;98542.06;;;16.94;71.58
55022;BME280;68328;35.990;-86.756;2023-04-04T09:39:13;98549.59;;;16.95;73.75
55022;BME280;68328;35.990;-86.756;2023-04-04T09:41:38;98547.93;;;16.52;73.59
55022;BME280;68328;35.990;-86.756;2023-04-04T09:44:04;98554.97;;;16.09;76.06
55022;BME280;68328;35.990;-86.756;2023-04-04T09:46:28;98550.43;;;17.10;72.11
55022;BME280;68328;35.990;-86.756;2023-04-04T09:48:54;98547.97;;;17.47;71.21
55022;BME280;68328;35.990;-86.756;2023-04-04T09:51:19;98550.08;;;16.21;75.19
55022;BME280;68328;35.990;-86.756;2023-04-04T09:53:47;98545.75;;;16.53;73.72
55022;BME280;68328;35.990;-86.756;2023-04-04T09:56:12;98545.95;;;16.02;75.25
55022;BME280;68328;35.990;-86.756;2023-04-04T09:58:37;98549.12;;;16.77;73.95
55022;BME280;68328;35.990;-86.756;2023-04-04T10:01:06;98552.01;;;17.54;72.23
55022;BME280;68328;35.990;-86.756;2023-04-04T10:03:29;98538.91;;;16.59;75.48
55022;BME280;68328;35.990;-86.756;2023-04-04T10:05:55;98540.96;;;16.34;76.49
55022;BME280;68328;35.990;-86.756;2023-04-04T10:08:21;98549.63;;;16.43;74.54
55022;BME280;68328;35.990;-86.756;2023-04-04T10:10:49;98550.33;;;16.61;73.92
55022;BME280;68328;35.990;-86.756;2023-04-04T10:13:10;98562.62;;;15.96;76.17
55022;BME280;68328;35.990;-86.756;2023-04-04T10:15:35;98572.15;;;16.36;75.89
55022;BME280;68328;35.990;-86.756;2023-04-04T10:18:00;98569.60;;;16.70;74.96
55022;BME280;68328;35.990;-86.756;2023-04-04T10:20:25;98564.87;;;16.70;74.22
55022;BME280;68328;35.990;-86.756;2023-04-04T10:22:49;98565.54;;;16.55;76.07
55022;BME280;68328;35.990;-86.756;2023-04-04T10:25:16;98561.16;;;16.44;77.03
55022;BME280;68328;35.990;-86.756;2023-04-04T10:27:40;98567.17;;;16.25;77.55
55022;BME280;68328;35.990;-86.756;2023-04-04T10:30:06;98566.66;;;16.18;78.05
55022;BME280;68328;35.990;-86.756;2023-04-04T10:32:40;98564.58;;;16.24;77.12
55022;BME280;68328;35.990;-86.756;2023-04-04T10:35:02;98562.32;;;16.46;76.99
55022;BME280;68328;35.990;-86.756;2023-04-04T10:37:26;98561.72;;;17.18;73.64
55022;BME280;68328;35.990;-86.756;2023-04-04T10:39:52;98569.69;;;16.74;74.83
55022;BME280;68328;35.990;-86.756;2023-04-04T10:42:15;98579.35;;;16.98;75.02
55022;BME280;68328;35.990;-86.756;2023-04-04T10:44:38;98577.84;;;17.21;73.80
55022;BME280;68328;35.990;-86.756;2023-04-04T10:47:10;98583.44;;;16.75;75.01
55022;BME280;68328;35.990;-86.756;2023-04-04T10:49:28;98588.96;;;16.50;75.85
55022;BME280;68328;35.990;-86.756;2023-04-04T10:51:54;98593.61;;;16.99;73.92
55022;BME280;68328;35.990;-86.756;2023-04-04T10:54:19;98602.02;;;17.30;71.78
55022;BME280;68328;35.990;-86.756;2023-04-04T10:56:44;98608.56;;;17.41;72.29
55022;BME280;68328;35.990;-86.756;2023-04-04T10:59:11;98618.90;;;16.94;72.76
55022;BME280;68328;35.990;-86.756;2023-04-04T11:01:47;98613.76;;;17.08;72.57
55022;BME280;68328;35.990;-86.756;2023-04-04T11:04:16;98613.05;;;17.47;70.97
55022;BME280;68328;35.990;-86.756;2023-04-04T11:08:54;98619.72;;;17.50;72.43
55022;BME280;68328;35.990;-86.756;2023-04-04T11:11:18;98622.81;;;16.98;73.03
55022;BME280;68328;35.990;-86.756;2023-04-04T11:16:11;98624.03;;;17.64;70.60
55022;BME280;68328;35.990;-86.756;2023-04-04T11:18:45;98628.53;;;16.84;75.11
55022;BME280;68328;35.990;-86.756;2023-04-04T11:21:01;98628.10;;;16.81;74.51
55022;BME280;68328;35.990;-86.756;2023-04-04T11:23:24;98639.51;;;17.25;73.87
55022;BME280;68328;35.990;-86.756;2023-04-04T11:25:52;98644.54;;;16.75;75.67
55022;BME280;68328;35.990;-86.756;2023-04-04T11:28:25;98642.05;;;16.60;74.91
55022;BME280;68328;35.990;-86.756;2023-04-04T11:30:42;98646.07;;;17.12;74.66
55022;BME280;68328;35.990;-86.756;2023-04-04T11:33:06;98646.69;;;17.03;75.38
55022;BME280;68328;35.990;-86.756;2023-04-04T11:35:32;98654.03;;;17.29;73.50
55022;BME280;68328;35.990;-86.756;2023-04-04T11:37:59;98656.92;;;17.27;73.06
55022;BME280;68328;35.990;-86.756;2023-04-04T11:42:51;98657.14;;;17.76;71.72
55022;BME280;68328;35.990;-86.756;2023-04-04T11:45:17;98661.95;;;18.23;70.56
55022;BME280;68328;35.990;-86.756;2023-04-04T11:47:42;98661.14;;;18.29;70.43
55022;BME280;68328;35.990;-86.756;2023-04-04T11:50:08;98663.01;;;17.32;73.73
55022;BME280;68328;35.990;-86.756;2023-04-04T11:52:33;98661.82;;;18.21;71.35
55022;BME280;68328;35.990;-86.756;2023-04-04T11:54:55;98664.24;;;17.43;72.79
55022;BME280;68328;35.990;-86.756;2023-04-04T11:57:20;98666.76;;;18.45;69.27
55022;BME280;68328;35.990;-86.756;2023-04-04T11:59:47;98669.38;;;17.15;74.49
55022;BME280;68328;35.990;-86.756;2023-04-04T12:02:12;98672.92;;;17.72;72.08
55022;BME280;68328;35.990;-86.756;2023-04-04T12:04:39;98677.92;;;17.37;73.52
55022;BME280;68328;35.990;-86.756;2023-04-04T12:07:07;98683.20;;;17.84;72.02
55022;BME280;68328;35.990;-86.756;2023-04-04T12:09:28;98679.72;;;18.45;68.94
55022;BME280;68328;35.990;-86.756;2023-04-04T12:11:54;98682.60;;;19.06;67.36
55022;BME280;68328;35.990;-86.756;2023-04-04T12:14:19;98684.65;;;18.17;69.60
55022;BME280;68328;35.990;-86.756;2023-04-04T12:16:46;98684.25;;;18.41;69.06
55022;BME280;68328;35.990;-86.756;2023-04-04T12:19:10;98681.07;;;18.57;68.45
55022;BME280;68328;35.990;-86.756;2023-04-04T12:21:36;98687.37;;;18.34;70.66
55022;BME280;68328;35.990;-86.756;2023-04-04T12:24:02;98687.14;;;19.07;67.02
55022;BME280;68328;35.990;-86.756;2023-04-04T12:26:27;98687.78;;;18.45;67.95
55022;BME280;68328;35.990;-86.756;2023-04-04T12:28:52;98695.24;;;17.94;70.26
55022;BME280;68328;35.990;-86.756;2023-04-04T12:31:18;98696.13;;;18.09;70.12
55022;BME280;68328;35.990;-86.756;2023-04-04T12:33:43;98701.25;;;18.45;69.09
55022;BME280;68328;35.990;-86.756;2023-04-04T12:36:11;98702.59;;;18.93;68.04
55022;BME280;68328;35.990;-86.756;2023-04-04T12:40:59;98707.50;;;17.76;72.71
55022;BME280;68328;35.990;-86.756;2023-04-04T12:43:27;98711.60;;;18.43;70.53